Time;durP1;ratioP1;P1;durP2;ratioP2;P2;SDS_P1;SDS_P2;PMS_P1;PMS_P2;Temp;Humidity;BMP_temperature;BMP_pressure;BME280_temperature;BME280_humidity;BME280_pressure;Samples;Min_cycle;Max_cycle;Signal;HPM_P1;HPM_P2
2023/03/21 00:04:07;;;;;;;10.60;7.60;;;7.50;99.90;;;;;;10483895;28;20237;-80
2023/03/21 00:09:28;;;;;;;10.03;6.87;;;7.50;99.90;;;;;;10479352;28;20488;-80
2023/03/21 00:14:49;;;;;;;9.67;7.00;;;7.50;99.90;;;;;;10450684;28;20228;-79
2023/03/21 00:20:19;;;;;;;7.37;6.30;;;7.60;99.90;;;;;;10469360;28;20220;-79
2023/03/21 00:25:40;;;;;;;8.50;7.17;;;7.60;99.90;;;;;;10488116;28;20394;-79
2023/03/21 00:31:02;;;;;;;9.20;6.77;;;7.50;99.90;;;;;;10477480;28;20193;-80
2023/03/21 00:36:24;;;;;;;10.87;7.03;;;7.50;99.90;;;;;;10470637;28;20423;-79
2023/03/21 00:41:45;;;;;;;9.30;7.13;;;7.50;99.90;;;;;;10463874;28;20270;-80
2023/03/21 00:47:08;;;;;;;10.77;7.60;;;7.50;99.90;;;;;;10478733;28;20199;-80
2023/03/21 00:52:29;;;;;;;7.47;6.60;;;7.50;99.90;;;;;;10486365;28;20208;-79
2023/03/21 00:58:00;;;;;;;7.50;6.40;;;7.40;99.90;;;;;;10477766;28;20189;-80
2023/03/21 01:03:25;;;;;;;10.87;6.87;;;7.40;99.90;;;;;;10472370;28;20201;-80
2023/03/21 01:08:47;;;;;;;8.13;6.50;;;7.40;99.90;;;;;;10436015;28;20456;-80
2023/03/21 01:14:14;;;;;;;6.70;5.53;;;7.40;99.90;;;;;;10435342;28;20584;-79
2023/03/21 01:19:42;;;;;;;6.40;5.63;;;7.40;99.90;;;;;;10433345;28;20201;-80
2023/03/21 01:25:12;;;;;;;6.43;5.13;;;7.40;99.90;;;;;;10457680;28;20213;-79
2023/03/21 01:30:51;;;;;;;5.23;4.13;;;7.40;99.90;;;;;;11321668;22;20192;-77
2023/03/21 01:36:20;;;;;;;5.10;4.13;;;7.40;99.90;;;;;;10374575;28;20229;-79
2023/03/21 01:41:44;;;;;;;5.23;4.10;;;7.40;99.90;;;;;;10395290;28;20195;-77
2023/03/21 01:47:10;;;;;;;6.47;4.30;;;7.40;99.90;;;;;;10372492;28;20936;-78
2023/03/21 01:52:40;;;;;;;6.10;3.73;;;7.40;99.90;;;;;;10360490;28;20224;-77
2023/03/21 01:58:19;;;;;;;5.40;3.73;;;7.40;99.90;;;;;;10320405;28;20195;-78
2023/03/21 02:03:53;;;;;;;5.70;3.60;;;7.40;99.90;;;;;;10354608;28;20203;-78
2023/03/21 02:09:35;;;;;;;5.63;3.90;;;7.30;99.90;;;;;;10402858;28;20195;-78
2023/03/21 02:15:03;;;;;;;5.53;3.60;;;7.30;99.90;;;;;;10370847;28;20232;-78
2023/03/21 02:21:16;;;;;;;5.33;3.80;;;7.30;99.90;;;;;;10361633;28;20212;-78
2023/03/21 02:26:52;;;;;;;7.87;4.27;;;7.30;99.90;;;;;;10347061;28;20194;-78
2023/03/21 02:32:32;;;;;;;8.27;5.17;;;7.30;99.90;;;;;;10351260;28;20236;-77
2023/03/21 02:38:11;;;;;;;9.33;6.20;;;7.20;99.90;;;;;;10356012;28;20314;-78
2023/03/21 02:44:07;;;;;;;8.57;6.37;;;7.10;99.90;;;;;;10374721;28;20201;-77
2023/03/21 02:50:04;;;;;;;8.20;6.40;;;7.10;99.90;;;;;;10403041;28;20204;-79
2023/03/21 02:55:28;;;;;;;10.53;7.10;;;7.00;99.90;;;;;;10344646;28;20226;-79
2023/03/21 03:00:57;;;;;;;10.70;7.57;;;7.10;99.90;;;;;;10345049;28;20270;-78
2023/03/21 03:06:47;;;;;;;10.67;7.53;;;7.10;99.90;;;;;;10351752;28;20210;-78
2023/03/21 03:12:41;;;;;;;11.43;8.40;;;7.00;99.90;;;;;;10350454;28;20210;-78
2023/03/21 03:18:12;;;;;;;10.13;7.50;;;7.00;99.90;;;;;;10370937;28;20270;-78
2023/03/21 03:23:54;;;;;;;9.97;7.20;;;7.00;99.90;;;;;;10365568;28;20206;-77
2023/03/21 03:29:18;;;;;;;12.33;7.40;;;7.10;99.90;;;;;;10368001;28;20511;-78
2023/03/21 03:34:43;;;;;;;12.57;8.60;;;7.00;99.90;;;;;;10398888;28;20243;-79
2023/03/21 03:40:09;;;;;;;12.70;7.93;;;7.10;99.90;;;;;;10348801;28;20237;-78
2023/03/21 03:45:48;;;;;;;12.90;8.80;;;7.10;99.90;;;;;;10367493;28;20224;-78
2023/03/21 03:51:15;;;;;;;16.17;10.47;;;7.00;99.90;;;;;;10378147;28;20202;-78
2023/03/21 03:57:00;;;;;;;15.50;10.23;;;6.90;99.90;;;;;;10356760;28;20238;-78
2023/03/21 04:02:21;;;;;;;17.93;9.97;;;6.80;99.90;;;;;;10356682;28;20446;-79
2023/03/21 04:07:42;;;;;;;14.23;9.60;;;6.70;99.90;;;;;;10370791;28;20247;-79
2023/03/21 04:13:03;;;;;;;19.00;9.90;;;6.70;99.90;;;;;;10382858;28;20197;-78
2023/03/21 04:18:42;;;;;;;18.17;11.57;;;6.60;99.90;;;;;;10382725;28;20273;-78
2023/03/21 04:24:06;;;;;;;13.70;9.80;;;6.60;99.90;;;;;;10364838;28;20510;-78
2023/03/21 04:29:28;;;;;;;18.27;10.33;;;6.70;99.90;;;;;;10365611;28;20201;-78
2023/03/21 04:34:55;;;;;;;17.43;10.83;;;6.70;99.90;;;;;;10396652;28;20243;-78
2023/03/21 04:40:17;;;;;;;15.37;10.33;;;6.70;99.90;;;;;;10336766;28;20212;-77
2023/03/21 04:45:39;;;;;;;14.17;9.53;;;6.60;99.90;;;;;;10365778;28;20196;-77
2023/03/21 04:51:01;;;;;;;11.03;8.23;;;6.60;99.90;;;;;;10378625;28;20198;-77
2023/03/21 04:56:32;;;;;;;16.83;8.70;;;6.60;99.90;;;;;;10363433;28;20227;-79
2023/03/21 05:01:55;;;;;;;15.50;8.57;;;6.60;99.90;;;;;;10380795;28;20193;-79
2023/03/21 05:07:16;;;;;;;17.50;10.17;;;6.60;99.90;;;;;;10394566;28;20221;-78
2023/03/21 05:12:38;;;;;;;16.57;10.10;;;6.60;99.90;;;;;;10363265;28;20211;-78
2023/03/21 05:18:09;;;;;;;15.03;9.17;;;6.60;99.90;;;;;;10366261;28;20387;-78
2023/03/21 05:23:41;;;;;;;16.27;9.97;;;6.50;99.90;;;;;;10362404;28;20209;-78
2023/03/21 05:29:02;;;;;;;16.30;9.10;;;6.60;99.90;;;;;;10377432;28;20413;-78
2023/03/21 05:34:24;;;;;;;15.10;10.40;;;6.50;99.90;;;;;;10379823;28;20685;-78
2023/03/21 05:39:46;;;;;;;20.90;11.40;;;6.50;99.90;;;;;;10378401;28;20201;-78
2023/03/21 05:45:15;;;;;;;14.40;9.10;;;6.50;99.90;;;;;;10369224;28;20197;-78
2023/03/21 05:50:38;;;;;;;23.57;11.93;;;6.60;99.90;;;;;;10363490;28;20207;-78
2023/03/21 05:56:06;;;;;;;21.43;9.97;;;6.60;99.90;;;;;;10350263;28;20242;-77
2023/03/21 06:01:47;;;;;;;13.73;8.00;;;6.60;99.90;;;;;;10353406;28;20233;-77
2023/03/21 06:07:09;;;;;;;16.57;8.30;;;6.60;99.90;;;;;;10325537;28;20378;-78
2023/03/21 06:12:33;;;;;;;47.60;24.40;;;6.60;99.90;;;;;;10363551;28;20205;-77
2023/03/21 06:18:16;;;;;;;34.20;20.40;;;6.60;99.90;;;;;;10368629;28;20216;-77
2023/03/21 06:23:50;;;;;;;20.63;12.30;;;6.70;99.90;;;;;;10379169;28;20442;-77
2023/03/21 06:29:12;;;;;;;12.87;8.03;;;6.80;99.90;;;;;;10370012;28;20206;-77
2023/03/21 06:34:38;;;;;;;14.13;7.87;;;6.80;99.90;;;;;;10360248;28;20249;-78
2023/03/21 06:40:00;;;;;;;16.50;8.37;;;6.80;99.90;;;;;;10400235;28;20186;-77
2023/03/21 06:45:21;;;;;;;12.63;8.17;;;6.80;99.90;;;;;;10382191;28;20229;-78
2023/03/21 06:50:42;;;;;;;17.00;8.57;;;6.90;99.90;;;;;;10385656;28;20258;-78
2023/03/21 06:56:04;;;;;;;12.70;7.97;;;7.00;99.90;;;;;;10380979;28;20294;-78
2023/03/21 07:01:29;;;;;;;14.20;7.33;;;7.00;99.90;;;;;;10358828;28;20238;-76
2023/03/21 07:06:57;;;;;;;16.87;7.63;;;7.00;99.90;;;;;;10358551;28;20194;-75
2023/03/21 07:12:21;;;;;;;10.17;6.20;;;7.00;99.90;;;;;;10374295;28;20398;-77
2023/03/21 07:17:58;;;;;;;9.73;5.73;;;7.20;99.90;;;;;;10368642;28;20306;-78
2023/03/21 07:23:20;;;;;;;10.57;4.97;;;7.30;99.90;;;;;;10398464;28;20202;-78
2023/03/21 07:28:41;;;;;;;7.90;4.83;;;7.80;99.90;;;;;;10359392;28;20289;-79
2023/03/21 07:34:02;;;;;;;12.20;6.87;;;8.00;99.90;;;;;;10353040;28;20567;-78
2023/03/21 07:39:24;;;;;;;11.33;5.17;;;7.90;99.90;;;;;;10383390;28;20567;-78
2023/03/21 07:44:45;;;;;;;16.90;7.70;;;8.10;99.90;;;;;;10364758;28;20203;-78
2023/03/21 07:50:07;;;;;;;13.03;5.27;;;8.80;99.90;;;;;;10342595;28;20373;-78
2023/03/21 07:55:28;;;;;;;27.07;13.33;;;9.80;99.90;;;;;;10356904;28;20221;-79
2023/03/21 08:00:50;;;;;;;9.97;5.20;;;10.40;99.90;;;;;;10387800;28;20383;-79
2023/03/21 08:06:11;;;;;;;7.73;4.53;;;10.90;96.60;;;;;;10398909;28;20193;-80
2023/03/21 08:11:32;;;;;;;16.07;7.63;;;10.90;96.60;;;;;;10375475;28;20198;-79
2023/03/21 08:16:53;;;;;;;8.07;3.20;;;11.60;90.40;;;;;;10396061;28;20272;-78
2023/03/21 08:22:14;;;;;;;4.87;3.97;;;10.70;96.00;;;;;;10362585;28;20725;-77
2023/03/21 08:27:36;;;;;;;7.53;3.77;;;12.10;86.30;;;;;;10417314;28;20513;-77
2023/03/21 08:32:58;;;;;;;7.17;4.13;;;11.70;76.00;;;;;;10396063;28;20288;-77
2023/03/21 08:38:21;;;;;;;9.07;3.47;;;10.50;94.40;;;;;;10391348;28;20220;-78
2023/03/21 08:43:42;;;;;;;9.90;5.10;;;10.10;97.30;;;;;;10406354;28;20216;-78
2023/03/21 08:49:03;;;;;;;7.87;3.70;;;10.80;95.50;;;;;;10423961;28;20232;-77
2023/03/21 08:54:24;;;;;;;7.57;3.87;;;10.70;93.90;;;;;;10389504;28;20224;-76
2023/03/21 08:59:45;;;;;;;7.97;4.27;;;10.40;96.30;;;;;;10412613;28;20604;-78
2023/03/21 09:05:07;;;;;;;9.13;3.70;;;10.00;97.80;;;;;;10403317;28;20213;-78
2023/03/21 09:10:29;;;;;;;11.37;5.93;;;9.80;98.50;;;;;;10375152;28;20207;-81
2023/03/21 09:15:51;;;;;;;9.77;5.07;;;10.70;97.30;;;;;;10369904;28;20319;-79
2023/03/21 09:21:16;;;;;;;9.20;5.17;;;12.70;65.70;;;;;;10390917;28;20219;-79
2023/03/21 09:26:37;;;;;;;6.77;4.47;;;13.50;47.80;;;;;;10372344;28;20292;-79
2023/03/21 09:32:00;;;;;;;10.63;4.37;;;13.40;42.10;;;;;;10374743;28;20244;-80
2023/03/21 09:37:22;;;;;;;7.03;4.57;;;13.20;41.80;;;;;;10374095;28;20252;-79
2023/03/21 09:43:05;;;;;;;8.33;4.10;;;12.30;50.40;;;;;;10375400;28;20200;-80
2023/03/21 09:48:49;;;;;;;10.80;6.43;;;11.40;82.30;;;;;;10384496;28;20297;-79
2023/03/21 09:54:31;;;;;;;5.15;3.33;;;13.00;66.90;;;;;;10387868;28;20354;-78
2023/03/21 09:59:55;;;;;;;9.15;4.18;;;15.10;35.00;;;;;;10385567;28;20283;-78
2023/03/21 10:05:30;;;;;;;9.63;4.38;;;14.80;31.60;;;;;;10373277;28;20206;-79
2023/03/21 10:10:57;;;;;;;10.40;5.70;;;13.60;38.50;;;;;;10322786;28;20242;-78
2023/03/21 10:16:41;;;;;;;12.52;6.15;;;12.50;45.10;;;;;;10361403;28;20585;-79
2023/03/21 10:22:02;;;;;;;9.05;5.65;;;13.80;42.80;;;;;;10393828;28;20390;-79
2023/03/21 10:27:24;;;;;;;13.45;7.57;;;14.50;32.80;;;;;;10394114;28;20219;-78
2023/03/21 10:32:45;;;;;;;7.27;4.70;;;14.00;33.40;;;;;;10381410;28;20239;-78
2023/03/21 10:38:15;;;;;;;6.38;4.90;;;13.20;38.00;;;;;;10377145;28;20420;-79
2023/03/21 10:43:39;;;;;;;5.43;3.92;;;12.80;42.30;;;;;;10380685;28;20235;-79
2023/03/21 10:49:01;;;;;;;7.97;3.57;;;13.00;39.80;;;;;;10370411;28;20387;-79
2023/03/21 10:54:27;;;;;;;4.77;3.00;;;13.20;41.50;;;;;;10401058;28;20219;-79
2023/03/21 10:59:54;;;;;;;6.53;2.70;;;13.60;33.80;;;;;;10377595;28;20293;-78
2023/03/21 11:05:32;;;;;;;4.35;3.13;;;13.30;32.90;;;;;;10393858;28;20239;-78
2023/03/21 11:11:03;;;;;;;7.88;3.00;;;14.60;31.90;;;;;;10365267;28;20207;-78
2023/03/21 11:16:34;;;;;;;5.20;2.83;;;15.70;27.30;;;;;;10370940;28;20324;-79
2023/03/21 11:21:57;;;;;;;6.75;3.22;;;16.40;24.40;;;;;;10394204;28;20257;-81
2023/03/21 11:27:19;;;;;;;2.97;2.50;;;17.00;23.70;;;;;;10375747;28;20260;-79
2023/03/21 11:32:41;;;;;;;5.88;2.45;;;17.60;20.70;;;;;;10393131;28;20243;-83
2023/03/21 11:38:04;;;;;;;4.13;2.97;;;17.10;20.10;;;;;;10392785;28;20757;-78
2023/03/21 11:43:36;;;;;;;6.15;3.40;;;15.50;22.10;;;;;;10391764;28;20477;-79
2023/03/21 11:49:00;;;;;;;5.75;3.30;;;15.60;23.90;;;;;;10397771;28;20190;-77
2023/03/21 11:54:40;;;;;;;6.97;3.57;;;14.60;25.40;;;;;;10393992;28;20211;-81
2023/03/21 12:00:26;;;;;;;7.03;2.92;;;14.30;27.40;;;;;;10374580;28;20218;-80
2023/03/21 12:05:55;;;;;;;4.30;3.20;;;14.50;26.70;;;;;;10354785;28;20200;-79
2023/03/21 12:11:24;;;;;;;5.30;3.63;;;14.00;28.00;;;;;;10393209;28;20201;-79
2023/03/21 12:17:14;;;;;;;5.33;2.80;;;13.50;30.90;;;;;;10384907;28;20303;-78
2023/03/21 12:23:06;;;;;;;4.67;2.37;;;13.70;32.30;;;;;;10361113;28;20415;-84
2023/03/21 12:28:30;;;;;;;15.10;8.50;;;13.70;30.70;;;;;;10371660;28;20417;-79
2023/03/21 12:34:17;;;;;;;3.83;2.47;;;13.70;29.20;;;;;;10387901;28;20260;-77
2023/03/21 12:39:39;;;;;;;5.73;2.10;;;13.40;30.70;;;;;;10351634;28;20574;-79
2023/03/21 12:45:11;;;;;;;3.70;2.33;;;13.50;30.20;;;;;;10326551;28;20219;-79
2023/03/21 12:50:37;;;;;;;5.07;2.03;;;13.00;31.30;;;;;;10390851;28;20208;-81
2023/03/21 12:56:03;;;;;;;2.67;1.90;;;13.10;34.10;;;;;;10374769;28;20227;-83
2023/03/21 13:01:25;;;;;;;3.83;2.20;;;12.90;34.10;;;;;;10377063;28;20195;-78
2023/03/21 13:06:48;;;;;;;4.17;2.77;;;12.70;36.70;;;;;;10390757;28;20258;-78
2023/03/21 13:12:20;;;;;;;5.00;2.50;;;12.40;40.90;;;;;;10389388;28;20236;-79
2023/03/21 13:17:53;;;;;;;29.37;16.57;;;12.30;43.20;;;;;;10391376;28;20243;-78
2023/03/21 13:23:14;;;;;;;13.73;5.97;;;12.50;42.70;;;;;;10385715;28;20205;-79
2023/03/21 13:28:37;;;;;;;4.57;3.07;;;13.20;40.30;;;;;;10371331;28;20210;-79
2023/03/21 13:33:59;;;;;;;6.13;3.07;;;13.50;36.50;;;;;;10386850;28;20282;-79
2023/03/21 13:39:26;;;;;;;7.87;3.33;;;13.10;39.60;;;;;;10393437;28;20255;-80
2023/03/21 13:44:58;;;;;;;5.47;2.70;;;13.00;42.70;;;;;;10395636;28;20804;-79
2023/03/21 13:50:22;;;;;;;3.83;3.00;;;13.60;39.10;;;;;;10375409;28;20242;-79
2023/03/21 13:55:48;;;;;;;3.70;3.10;;;14.00;34.80;;;;;;10421096;28;20231;-78
2023/03/21 14:01:56;;;;;;;5.60;3.20;;;13.70;34.50;;;;;;10393430;28;20226;-78
2023/03/21 14:07:28;;;;;;;4.57;3.10;;;13.50;35.60;;;;;;10366769;28;20240;-80
2023/03/21 14:12:51;;;;;;;5.63;2.87;;;13.10;37.80;;;;;;10397573;28;20222;-81
2023/03/21 14:18:16;;;;;;;4.07;2.67;;;12.80;39.80;;;;;;10395558;28;20302;-78
2023/03/21 14:23:41;;;;;;;7.85;3.60;;;12.70;42.90;;;;;;10380640;28;20271;-83
2023/03/21 14:29:07;;;;;;;5.37;3.87;;;12.50;45.80;;;;;;10339148;28;20211;-79
2023/03/21 14:34:45;;;;;;;6.23;3.50;;;12.20;50.80;;;;;;10342250;28;20240;-85
2023/03/21 14:40:19;;;;;;;6.03;3.70;;;12.10;51.10;;;;;;10340621;28;20247;-80
2023/03/21 14:45:41;;;;;;;5.10;3.83;;;12.20;52.60;;;;;;10368950;28;20397;-80
2023/03/21 14:51:09;;;;;;;7.40;4.70;;;12.20;51.60;;;;;;10410175;28;20207;-79
2023/03/21 14:56:33;;;;;;;8.47;4.97;;;12.10;54.30;;;;;;10437660;28;20464;-89
2023/03/21 15:01:54;;;;;;;8.77;3.80;;;12.00;55.60;;;;;;10394503;28;20208;-84
2023/03/21 15:07:31;;;;;;;4.00;3.40;;;12.00;56.70;;;;;;10362011;28;20204;-76
2023/03/21 15:13:01;;;;;;;6.00;3.70;;;12.00;53.70;;;;;;10399179;28;20200;-77
2023/03/21 15:18:32;;;;;;;14.43;7.33;;;12.00;54.90;;;;;;10380137;28;20236;-76
2023/03/21 15:23:57;;;;;;;8.47;5.23;;;11.70;67.90;;;;;;10374085;28;20206;-78
2023/03/21 15:29:18;;;;;;;6.37;3.33;;;11.60;59.30;;;;;;10394910;28;20201;-80
2023/03/21 15:34:40;;;;;;;7.50;4.27;;;11.40;67.90;;;;;;10393720;28;20254;-77
2023/03/21 15:40:21;;;;;;;7.27;4.00;;;11.40;69.70;;;;;;10363428;28;20525;-77
2023/03/21 15:45:52;;;;;;;7.10;4.77;;;11.30;69.50;;;;;;10394424;28;20195;-80
2023/03/21 15:51:22;;;;;;;6.40;3.30;;;11.20;67.30;;;;;;10411534;28;20247;-78
2023/03/21 15:56:44;;;;;;;5.23;3.50;;;11.10;71.40;;;;;;10336914;28;20292;-77
2023/03/21 16:02:17;;;;;;;5.43;3.53;;;11.00;75.70;;;;;;10353115;28;20207;-82
2023/03/21 16:07:44;;;;;;;15.50;8.10;;;11.00;72.10;;;;;;10342866;28;20219;-78
2023/03/21 16:13:06;;;;;;;20.93;10.47;;;11.00;73.60;;;;;;10347313;28;20552;-78
2023/03/21 16:18:28;;;;;;;18.77;11.60;;;10.90;72.50;;;;;;10395739;28;20223;-79
2023/03/21 16:23:49;;;;;;;28.33;14.53;;;10.90;78.50;;;;;;10350046;28;20283;-78
2023/03/21 16:29:14;;;;;;;52.57;26.23;;;10.80;72.60;;;;;;10361372;28;20213;-78
2023/03/21 16:34:36;;;;;;;16.33;8.93;;;10.80;79.30;;;;;;10349643;28;20235;-80
2023/03/21 16:39:57;;;;;;;67.30;35.07;;;10.80;80.30;;;;;;10325167;28;20519;-80
2023/03/21 16:45:19;;;;;;;37.20;21.47;;;10.80;78.60;;;;;;10371690;28;20236;-80
2023/03/21 16:50:42;;;;;;;39.17;16.63;;;10.70;77.90;;;;;;10384025;28;20208;-80
2023/03/21 16:56:04;;;;;;;22.47;12.30;;;10.60;83.60;;;;;;10422421;28;20290;-80
2023/03/21 17:01:26;;;;;;;17.17;10.33;;;10.60;83.90;;;;;;10399087;28;20389;-79
2023/03/21 17:06:52;;;;;;;30.67;14.93;;;10.50;85.30;;;;;;10379080;28;20496;-80
2023/03/21 17:12:15;;;;;;;7.70;5.70;;;10.50;88.40;;;;;;10381198;28;20582;-79
2023/03/21 17:17:36;;;;;;;13.63;7.20;;;10.40;89.50;;;;;;10368790;28;20246;-79
2023/03/21 17:22:59;;;;;;;7.97;5.13;;;10.40;90.40;;;;;;10345617;28;20274;-79
2023/03/21 17:28:20;;;;;;;9.30;4.43;;;10.30;90.20;;;;;;10378319;28;20199;-79
2023/03/21 17:33:42;;;;;;;14.33;8.20;;;10.30;90.60;;;;;;10363480;28;20245;-79
2023/03/21 17:39:05;;;;;;;14.10;9.13;;;10.30;91.30;;;;;;10394544;28;20272;-80
2023/03/21 17:44:26;;;;;;;11.03;6.57;;;10.20;91.60;;;;;;10380013;28;20354;-79
2023/03/21 17:49:48;;;;;;;16.40;6.60;;;10.20;91.20;;;;;;10390711;28;20198;-79
2023/03/21 17:55:09;;;;;;;12.87;7.20;;;10.20;92.60;;;;;;10436282;28;20193;-80
2023/03/21 18:00:31;;;;;;;13.93;7.53;;;10.10;92.80;;;;;;10394227;28;20212;-80
2023/03/21 18:05:52;;;;;;;27.70;15.63;;;10.10;93.30;;;;;;10359692;28;20396;-79
2023/03/21 18:11:15;;;;;;;48.57;24.03;;;10.10;93.50;;;;;;10336821;28;20201;-80
2023/03/21 18:16:36;;;;;;;47.27;20.80;;;10.10;94.00;;;;;;10359802;28;20533;-79
2023/03/21 18:21:57;;;;;;;50.63;18.53;;;10.00;94.00;;;;;;10377094;28;20501;-81
2023/03/21 18:27:18;;;;;;;51.37;22.10;;;10.00;94.30;;;;;;10359453;28;20227;-80
2023/03/21 18:32:40;;;;;;;66.73;29.90;;;10.00;94.50;;;;;;10356387;28;20245;-80
2023/03/21 18:38:02;;;;;;;41.03;20.30;;;10.00;95.20;;;;;;10373755;28;20230;-81
2023/03/21 18:43:23;;;;;;;28.20;15.53;;;9.90;96.00;;;;;;10387345;28;20190;-80
2023/03/21 18:49:04;;;;;;;26.37;12.80;;;9.90;96.30;;;;;;10386938;28;20395;-80
2023/03/21 18:54:46;;;;;;;21.57;12.73;;;9.70;96.50;;;;;;10427439;28;20509;-80
2023/03/21 19:00:15;;;;;;;16.90;10.03;;;9.80;96.80;;;;;;10427669;28;20232;-80
2023/03/21 19:05:39;;;;;;;17.10;10.07;;;9.80;96.60;;;;;;10392847;28;20285;-79
2023/03/21 19:11:00;;;;;;;15.77;9.00;;;9.70;97.50;;;;;;10399831;28;20529;-80
2023/03/21 19:16:27;;;;;;;16.47;8.03;;;9.70;97.50;;;;;;10386071;28;20602;-79
2023/03/21 19:21:54;;;;;;;12.23;7.20;;;9.60;97.10;;;;;;10399122;28;20387;-80
2023/03/21 19:27:29;;;;;;;22.30;12.27;;;9.70;97.40;;;;;;10369311;28;20368;-80
2023/03/21 19:32:51;;;;;;;18.93;8.83;;;9.70;96.90;;;;;;10398656;28;20264;-80
2023/03/21 19:38:12;;;;;;;14.93;8.77;;;9.70;96.70;;;;;;10399004;28;20212;-80
2023/03/21 19:43:33;;;;;;;13.40;7.57;;;9.70;97.40;;;;;;10366254;28;20213;-80
2023/03/21 19:49:18;;;;;;;29.17;12.83;;;9.60;97.90;;;;;;10383219;28;20224;-79
2023/03/21 19:54:39;;;;;;;26.90;13.13;;;9.60;98.00;;;;;;10418317;28;20220;-80
2023/03/21 20:00:00;;;;;;;58.27;24.17;;;9.60;97.80;;;;;;10396760;28;20240;-80
2023/03/21 20:05:25;;;;;;;23.63;12.60;;;9.50;98.30;;;;;;10365236;28;20283;-80
2023/03/21 20:10:46;;;;;;;14.53;7.30;;;9.60;98.70;;;;;;10380418;28;20207;-80
2023/03/21 20:16:07;;;;;;;22.17;10.63;;;9.60;98.20;;;;;;10398375;28;20227;-79
2023/03/21 20:21:30;;;;;;;22.03;10.07;;;9.50;99.40;;;;;;10360334;28;20294;-79
2023/03/21 20:27:02;;;;;;;16.73;8.53;;;9.40;99.20;;;;;;10353279;28;20499;-80
2023/03/21 20:32:23;;;;;;;16.43;8.60;;;9.40;99.90;;;;;;10374521;28;20243;-80
2023/03/21 20:37:48;;;;;;;15.23;8.37;;;9.40;99.60;;;;;;10396325;28;20231;-80
2023/03/21 20:43:10;;;;;;;17.37;9.67;;;9.40;99.90;;;;;;10376855;28;20206;-80
2023/03/21 20:48:51;;;;;;;19.43;10.63;;;9.40;99.90;;;;;;10398928;28;20546;-80
2023/03/21 20:54:12;;;;;;;27.07;17.43;;;9.50;99.90;;;;;;10413976;28;20192;-80
2023/03/21 20:59:34;;;;;;;31.10;17.53;;;9.40;99.90;;;;;;10364233;28;20229;-80
2023/03/21 21:04:55;;;;;;;25.27;13.70;;;9.30;99.90;;;;;;10356074;28;20214;-80
2023/03/21 21:10:38;;;;;;;19.43;11.37;;;9.30;99.90;;;;;;10330311;28;20191;-80
2023/03/21 21:16:19;;;;;;;15.83;9.70;;;9.30;99.90;;;;;;10347322;28;20604;-80
2023/03/21 21:21:40;;;;;;;11.10;8.00;;;9.20;99.90;;;;;;10339361;28;20208;-79
2023/03/21 21:27:01;;;;;;;12.70;8.07;;;9.20;99.90;;;;;;10395796;28;20193;-80
2023/03/21 21:32:22;;;;;;;10.47;7.60;;;9.10;99.90;;;;;;10379868;28;20245;-80
2023/03/21 21:37:43;;;;;;;12.87;8.40;;;9.10;99.90;;;;;;10394600;28;20226;-80
2023/03/21 21:43:04;;;;;;;14.37;8.23;;;9.10;99.90;;;;;;10377936;28;20273;-80
2023/03/21 21:48:27;;;;;;;13.77;8.10;;;9.10;99.90;;;;;;10377757;28;20203;-80
2023/03/21 21:53:48;;;;;;;16.43;9.40;;;9.10;99.90;;;;;;10404860;28;20226;-80
2023/03/21 21:59:09;;;;;;;14.27;8.67;;;9.10;99.90;;;;;;10422681;28;20225;-80
2023/03/21 22:04:31;;;;;;;15.60;8.50;;;9.10;99.90;;;;;;10424602;28;20197;-80
2023/03/21 22:09:53;;;;;;;15.23;8.00;;;9.00;99.90;;;;;;10386290;28;20214;-80
2023/03/21 22:15:13;;;;;;;12.73;8.00;;;9.10;99.90;;;;;;10371682;28;20203;-80
2023/03/21 22:20:35;;;;;;;15.03;8.67;;;9.10;99.90;;;;;;10383829;28;20275;-79
2023/03/21 22:25:57;;;;;;;15.07;8.57;;;9.10;99.90;;;;;;10383384;28;20243;-80
2023/03/21 22:31:18;;;;;;;14.13;9.27;;;9.10;99.90;;;;;;10400115;28;20403;-80
2023/03/21 22:36:45;;;;;;;15.03;9.13;;;9.00;99.90;;;;;;10401228;28;20266;-80
2023/03/21 22:42:06;;;;;;;14.27;9.20;;;9.00;99.90;;;;;;10400588;28;20283;-79
2023/03/21 22:47:29;;;;;;;14.03;10.20;;;9.00;99.90;;;;;;10400448;28;20204;-80
2023/03/21 22:52:50;;;;;;;14.27;10.40;;;9.00;99.90;;;;;;10437939;28;20192;-80
2023/03/21 22:58:11;;;;;;;15.67;10.27;;;9.00;99.90;;;;;;10396263;28;20255;-79
2023/03/21 23:03:32;;;;;;;20.30;12.17;;;8.90;99.90;;;;;;10397989;28;20201;-79
2023/03/21 23:08:54;;;;;;;17.77;12.17;;;9.00;99.90;;;;;;10400081;28;20265;-79
2023/03/21 23:14:18;;;;;;;23.50;12.87;;;9.00;99.90;;;;;;10382154;28;20292;-80
2023/03/21 23:19:39;;;;;;;17.17;12.00;;;8.90;99.90;;;;;;10375577;28;20309;-79
2023/03/21 23:25:01;;;;;;;17.87;12.07;;;8.90;99.90;;;;;;10382248;28;20282;-79
2023/03/21 23:30:23;;;;;;;21.50;14.37;;;8.90;99.90;;;;;;10381953;28;20693;-80
2023/03/21 23:35:44;;;;;;;23.37;15.03;;;8.90;99.90;;;;;;10380780;28;20219;-79
2023/03/21 23:41:15;;;;;;;17.80;12.77;;;8.90;99.90;;;;;;10356780;28;20239;-79
2023/03/21 23:46:36;;;;;;;18.23;13.80;;;9.00;99.90;;;;;;10327638;28;20207;-79
2023/03/21 23:51:57;;;;;;;23.33;14.53;;;8.90;99.90;;;;;;10373391;28;20272;-79
2023/03/21 23:57:18;;;;;;;18.20;14.00;;;9.00;99.90;;;;;;10373525;28;20229;-80
